Time;durP1;ratioP1;P1;durP2;ratioP2;P2;SDS_P1;SDS_P2;PMS_P1;PMS_P2;Temp;Humidity;BMP_temperature;BMP_pressure;BME280_temperature;BME280_humidity;BME280_pressure;Samples;Min_cycle;Max_cycle;Signal;HPM_P1;HPM_P2
2021/08/08 00:01:31;;;;;;;6.70;4.13;;;16.10;99.90;;;;;;4222919;28;20147;-62
2021/08/08 00:03:32;;;;;;;5.40;3.70;;;16.10;99.90;;;;;;4231706;27;20035;-62
2021/08/08 00:05:33;;;;;;;8.98;4.15;;;16.10;99.90;;;;;;4237775;27;20530;-63
2021/08/08 00:07:35;;;;;;;4.90;3.20;;;16.00;99.90;;;;;;4239596;27;20031;-62
2021/08/08 00:09:37;;;;;;;11.48;4.50;;;16.00;99.90;;;;;;4239000;27;20084;-61
2021/08/08 00:11:39;;;;;;;6.78;4.07;;;16.00;99.90;;;;;;4236826;27;20027;-62
2021/08/08 00:13:40;;;;;;;5.35;3.67;;;15.90;99.90;;;;;;4229480;27;20031;-62
2021/08/08 00:15:41;;;;;;;5.90;3.75;;;15.80;99.90;;;;;;4222300;28;20036;-62
2021/08/08 00:17:42;;;;;;;5.57;3.65;;;15.80;99.90;;;;;;4222147;28;20425;-62
2021/08/08 00:19:43;;;;;;;6.63;3.80;;;15.70;99.90;;;;;;4222719;28;20080;-63
2021/08/08 00:21:45;;;;;;;7.75;4.03;;;15.60;99.90;;;;;;4236004;27;20461;-62
2021/08/08 00:23:46;;;;;;;11.13;4.32;;;15.50;99.90;;;;;;4223756;27;20036;-62
2021/08/08 00:25:48;;;;;;;8.02;3.80;;;15.30;99.90;;;;;;4225940;27;20154;-62
2021/08/08 00:27:50;;;;;;;6.50;4.30;;;15.20;99.90;;;;;;4239458;27;20023;-62
2021/08/08 00:29:51;;;;;;;9.88;4.53;;;15.20;99.90;;;;;;4239679;27;20047;-62
2021/08/08 00:31:52;;;;;;;8.35;4.13;;;15.20;99.90;;;;;;4234273;27;20523;-62
2021/08/08 00:33:54;;;;;;;7.95;4.30;;;15.10;99.90;;;;;;4224323;27;20043;-63
2021/08/08 00:35:55;;;;;;;8.75;4.60;;;15.10;99.90;;;;;;4222503;28;20089;-61
2021/08/08 00:37:57;;;;;;;9.52;5.05;;;15.20;99.90;;;;;;4238774;27;20891;-62
2021/08/08 00:39:58;;;;;;;5.97;4.35;;;15.20;99.90;;;;;;4239050;27;20031;-62
2021/08/08 00:41:59;;;;;;;9.65;4.50;;;15.10;99.90;;;;;;4230066;27;20076;-61
2021/08/08 00:44:00;;;;;;;11.23;5.50;;;15.10;99.90;;;;;;4229906;27;20034;-62
2021/08/08 00:46:01;;;;;;;9.98;5.38;;;15.10;99.90;;;;;;4225139;27;20441;-63
2021/08/08 00:48:03;;;;;;;9.38;6.07;;;15.10;99.90;;;;;;4222385;28;20877;-62
2021/08/08 00:50:05;;;;;;;9.98;6.35;;;15.00;99.90;;;;;;4222544;28;20043;-62
2021/08/08 00:52:07;;;;;;;11.80;6.22;;;15.00;99.90;;;;;;4234466;27;20043;-62
2021/08/08 00:54:08;;;;;;;8.15;5.65;;;15.00;99.90;;;;;;4238513;27;20047;-61
2021/08/08 00:56:11;;;;;;;9.10;5.32;;;15.00;99.90;;;;;;4239067;27;20754;-62
2021/08/08 00:58:12;;;;;;;11.15;5.57;;;15.00;99.90;;;;;;4225202;27;20733;-62
2021/08/08 01:00:14;;;;;;;10.27;5.07;;;15.10;99.90;;;;;;4222832;28;20372;-63
2021/08/08 01:02:16;;;;;;;6.63;4.90;;;15.10;99.90;;;;;;4233517;28;20433;-63
2021/08/08 01:04:22;;;;;;;5.50;4.63;;;15.10;99.90;;;;;;4238857;27;20471;-63
2021/08/08 01:06:31;;;;;;;10.40;5.10;;;15.20;99.90;;;;;;4238495;28;20490;-63
2021/08/08 01:08:32;;;;;;;9.57;4.95;;;15.30;99.90;;;;;;4239069;28;20027;-62
2021/08/08 01:10:35;;;;;;;7.18;5.43;;;15.30;99.90;;;;;;4204989;28;20032;-63
2021/08/08 01:12:38;;;;;;;9.13;5.82;;;15.30;99.90;;;;;;4223872;28;20532;-61
2021/08/08 01:14:41;;;;;;;8.23;5.40;;;15.40;99.90;;;;;;4207103;28;20078;-62
2021/08/08 01:16:43;;;;;;;9.70;5.80;;;15.40;99.90;;;;;;4224285;28;20036;-62
2021/08/08 01:18:46;;;;;;;8.52;5.80;;;15.50;99.90;;;;;;4228237;28;20439;-63
2021/08/08 01:20:50;;;;;;;11.57;6.03;;;15.50;99.90;;;;;;4209646;28;20077;-61
2021/08/08 01:22:55;;;;;;;9.48;7.10;;;15.60;99.90;;;;;;4205347;28;20028;-62
2021/08/08 01:25:04;;;;;;;11.68;8.30;;;15.60;99.90;;;;;;4222103;28;20043;-62
2021/08/08 01:27:06;;;;;;;11.98;8.63;;;15.60;99.90;;;;;;4239042;28;20023;-62
2021/08/08 01:29:07;;;;;;;13.20;9.35;;;15.60;99.90;;;;;;4241398;27;20526;-62
2021/08/08 01:31:08;;;;;;;13.40;7.63;;;15.60;99.90;;;;;;4241314;27;20527;-62
2021/08/08 01:33:11;;;;;;;10.25;6.90;;;15.60;99.90;;;;;;4225028;28;20039;-63
2021/08/08 01:35:13;;;;;;;9.48;5.43;;;15.60;99.90;;;;;;4225253;28;20028;-62
2021/08/08 01:37:19;;;;;;;7.97;4.72;;;15.60;99.90;;;;;;4240472;27;20068;-62
2021/08/08 01:39:21;;;;;;;7.18;4.50;;;15.50;99.90;;;;;;4242556;27;20098;-62
2021/08/08 01:41:25;;;;;;;7.93;5.00;;;15.40;99.90;;;;;;4241150;27;20112;-63
2021/08/08 01:43:28;;;;;;;7.68;5.13;;;15.30;99.90;;;;;;4242276;27;20088;-62
2021/08/08 01:45:29;;;;;;;7.90;5.35;;;15.20;99.90;;;;;;4241359;27;20042;-62
2021/08/08 01:47:34;;;;;;;9.82;5.82;;;15.10;99.90;;;;;;4236664;27;20089;-62
2021/08/08 01:49:36;;;;;;;9.30;5.60;;;15.00;99.90;;;;;;4224790;28;20081;-62
2021/08/08 01:51:38;;;;;;;7.85;5.65;;;14.80;99.90;;;;;;4225308;27;20196;-62
2021/08/08 01:53:40;;;;;;;7.00;4.95;;;14.60;99.90;;;;;;4225073;28;20425;-62
2021/08/08 01:55:41;;;;;;;8.60;5.03;;;14.50;99.90;;;;;;4226384;27;20032;-61
2021/08/08 01:57:43;;;;;;;9.00;5.55;;;14.40;99.90;;;;;;4241453;27;20083;-63
2021/08/08 01:59:44;;;;;;;8.37;5.37;;;14.20;99.90;;;;;;4241460;27;20092;-62
2021/08/08 02:01:45;;;;;;;10.70;5.93;;;14.10;99.90;;;;;;4241388;27;20068;-62
2021/08/08 02:03:46;;;;;;;8.40;5.90;;;14.00;99.90;;;;;;4241600;27;20087;-62
2021/08/08 02:05:48;;;;;;;10.10;6.50;;;14.00;99.90;;;;;;4241622;27;20483;-61
2021/08/08 02:07:49;;;;;;;12.27;6.53;;;13.90;99.90;;;;;;4241177;27;20084;-62
2021/08/08 02:09:50;;;;;;;9.27;5.57;;;13.90;99.90;;;;;;4239148;27;20039;-62
2021/08/08 02:11:52;;;;;;;10.07;6.30;;;14.00;99.90;;;;;;4228482;27;20491;-62
2021/08/08 02:13:53;;;;;;;10.93;6.03;;;14.00;99.90;;;;;;4232877;27;20471;-62
2021/08/08 02:15:54;;;;;;;9.37;6.63;;;14.10;99.90;;;;;;4241180;27;20068;-62
2021/08/08 02:17:55;;;;;;;8.47;6.40;;;14.10;99.90;;;;;;4227258;27;20047;-62
2021/08/08 02:19:56;;;;;;;10.50;6.33;;;14.10;99.90;;;;;;4229087;27;20491;-62
2021/08/08 02:21:59;;;;;;;10.80;5.90;;;14.10;99.90;;;;;;4224791;28;20039;-62
2021/08/08 02:24:00;;;;;;;9.73;6.43;;;14.10;99.90;;;;;;4224090;27;20032;-62
2021/08/08 02:26:01;;;;;;;13.50;6.57;;;14.10;99.90;;;;;;4225077;27;20357;-62
2021/08/08 02:28:02;;;;;;;13.67;7.03;;;14.10;99.90;;;;;;4241419;27;20035;-62
2021/08/08 02:30:06;;;;;;;16.93;7.03;;;14.10;99.90;;;;;;4229128;27;20116;-62
2021/08/08 02:32:07;;;;;;;10.43;6.83;;;14.10;99.90;;;;;;4234993;27;20084;-62
2021/08/08 02:34:10;;;;;;;9.23;6.83;;;14.10;99.90;;;;;;4241127;27;20084;-62
2021/08/08 02:36:11;;;;;;;8.20;5.80;;;14.10;99.90;;;;;;4240545;27;20043;-63
2021/08/08 02:38:12;;;;;;;12.63;6.10;;;14.20;99.90;;;;;;4241408;27;20127;-63
2021/08/08 02:40:13;;;;;;;10.67;6.13;;;14.20;99.90;;;;;;4239888;27;20092;-62
2021/08/08 02:42:15;;;;;;;8.77;6.20;;;14.20;99.90;;;;;;4240765;27;20084;-62
2021/08/08 02:44:16;;;;;;;14.73;7.33;;;14.30;99.90;;;;;;4226193;27;20028;-62
2021/08/08 02:46:17;;;;;;;10.40;6.50;;;14.30;99.90;;;;;;4226783;27;20512;-62
2021/08/08 02:48:19;;;;;;;9.50;6.33;;;14.20;99.90;;;;;;4229981;27;20040;-62
2021/08/08 02:50:20;;;;;;;14.37;5.70;;;14.20;99.90;;;;;;4224128;28;20024;-62
2021/08/08 02:52:21;;;;;;;11.10;5.97;;;14.10;99.90;;;;;;4224652;28;20195;-63
2021/08/08 02:54:22;;;;;;;6.63;5.50;;;14.10;99.90;;;;;;4232492;27;20139;-63
2021/08/08 02:56:23;;;;;;;8.03;6.07;;;14.00;99.90;;;;;;4239241;27;20084;-62
2021/08/08 02:58:25;;;;;;;8.70;6.20;;;14.00;99.90;;;;;;4240379;27;20076;-62
2021/08/08 03:00:26;;;;;;;8.47;6.17;;;13.90;99.90;;;;;;4240657;27;20043;-62
2021/08/08 03:02:27;;;;;;;11.73;6.17;;;13.90;99.90;;;;;;4227402;27;20594;-63
2021/08/08 03:04:28;;;;;;;8.37;5.40;;;13.90;99.90;;;;;;4238849;27;20084;-63
2021/08/08 03:06:29;;;;;;;9.47;6.20;;;13.90;99.90;;;;;;4241173;27;20015;-62
2021/08/08 03:08:30;;;;;;;9.53;5.97;;;13.90;99.90;;;;;;4240274;27;20043;-62
2021/08/08 03:10:31;;;;;;;12.03;5.93;;;13.90;99.90;;;;;;4240790;27;20447;-62
2021/08/08 03:12:33;;;;;;;8.80;6.00;;;13.90;99.90;;;;;;4239813;27;20092;-62
2021/08/08 03:14:34;;;;;;;9.00;5.57;;;14.00;99.90;;;;;;4225144;27;20039;-63
2021/08/08 03:16:35;;;;;;;9.57;6.17;;;14.00;99.90;;;;;;4236638;27;20051;-61
2021/08/08 03:18:37;;;;;;;11.27;5.70;;;14.00;99.90;;;;;;4225748;27;20043;-62
2021/08/08 03:20:38;;;;;;;7.67;5.27;;;14.00;99.90;;;;;;4223290;27;20841;-62
2021/08/08 03:22:39;;;;;;;13.87;6.37;;;14.10;99.90;;;;;;4224088;28;20568;-62
2021/08/08 03:24:42;;;;;;;11.07;5.93;;;14.20;99.90;;;;;;4234842;27;20027;-62
2021/08/08 03:26:43;;;;;;;8.37;5.40;;;14.40;99.90;;;;;;4240565;27;20064;-62
2021/08/08 03:28:44;;;;;;;7.23;5.27;;;14.60;99.90;;;;;;4240297;27;20092;-62
2021/08/08 03:30:45;;;;;;;14.17;5.33;;;14.90;99.90;;;;;;4240099;27;20031;-62
2021/08/08 03:32:46;;;;;;;7.83;5.80;;;15.10;99.90;;;;;;4240064;27;20075;-62
2021/08/08 03:34:47;;;;;;;9.23;5.80;;;15.40;99.90;;;;;;4240266;27;20820;-63
2021/08/08 03:36:49;;;;;;;12.87;5.53;;;15.60;99.90;;;;;;4240083;27;20035;-62
2021/08/08 03:38:50;;;;;;;9.25;5.82;;;15.90;99.90;;;;;;4240060;27;20023;-62
2021/08/08 03:40:51;;;;;;;7.30;5.17;;;16.20;99.90;;;;;;4238397;27;20080;-63
2021/08/08 03:42:52;;;;;;;7.15;5.72;;;16.50;99.90;;;;;;4239449;27;20043;-62
2021/08/08 03:44:53;;;;;;;7.28;4.63;;;16.60;99.90;;;;;;4238491;27;20034;-62
2021/08/08 03:46:54;;;;;;;8.30;5.22;;;16.80;99.90;;;;;;4238539;27;20822;-62
2021/08/08 03:48:55;;;;;;;9.13;4.82;;;17.00;99.90;;;;;;4223709;27;20040;-62
2021/08/08 03:50:57;;;;;;;8.38;4.95;;;17.30;99.90;;;;;;4222946;28;20562;-62
2021/08/08 03:52:58;;;;;;;14.10;5.82;;;17.70;99.90;;;;;;4223342;28;20028;-63
2021/08/08 03:54:59;;;;;;;10.95;4.90;;;18.20;99.90;;;;;;4238576;27;20457;-62
2021/08/08 03:57:00;;;;;;;10.75;5.68;;;18.50;99.90;;;;;;4230399;27;20039;-63
2021/08/08 03:59:02;;;;;;;8.48;4.53;;;18.90;99.90;;;;;;4222375;27;20047;-62
2021/08/08 04:01:03;;;;;;;9.90;5.05;;;19.00;99.90;;;;;;4224493;27;20509;-63
2021/08/08 04:03:04;;;;;;;13.10;5.18;;;19.20;99.90;;;;;;4223009;28;20024;-62
2021/08/08 04:05:07;;;;;;;8.40;4.45;;;19.40;99.90;;;;;;4227549;27;20031;-63
2021/08/08 04:07:08;;;;;;;7.50;4.55;;;19.60;99.90;;;;;;4239270;27;20039;-62
2021/08/08 04:09:09;;;;;;;6.15;4.00;;;19.80;99.90;;;;;;4238395;27;20035;-62
2021/08/08 04:11:15;;;;;;;6.80;3.90;;;19.90;99.90;;;;;;4237558;27;20031;-63
2021/08/08 04:13:16;;;;;;;9.02;4.50;;;20.20;99.90;;;;;;4239904;27;20077;-63
2021/08/08 04:15:17;;;;;;;8.57;4.20;;;20.40;99.90;;;;;;4226699;27;20040;-62
2021/08/08 04:17:18;;;;;;;8.73;3.67;;;20.70;99.90;;;;;;4222654;27;20039;-62
2021/08/08 04:19:19;;;;;;;12.13;5.07;;;20.80;99.90;;;;;;4223167;27;20036;-63
2021/08/08 04:21:20;;;;;;;8.98;5.07;;;20.90;99.90;;;;;;4233576;27;20452;-62
2021/08/08 04:23:21;;;;;;;5.57;4.25;;;21.00;99.90;;;;;;4222580;27;20495;-63
2021/08/08 04:25:23;;;;;;;12.27;4.55;;;21.10;99.90;;;;;;4222311;28;20047;-63
2021/08/08 04:27:24;;;;;;;11.73;4.80;;;21.40;99.90;;;;;;4222736;27;20036;-63
2021/08/08 04:29:25;;;;;;;8.60;4.38;;;21.70;99.90;;;;;;4223156;27;20043;-63
2021/08/08 04:31:26;;;;;;;9.98;4.25;;;21.80;99.90;;;;;;4223027;27;20093;-63
2021/08/08 04:33:27;;;;;;;7.40;4.65;;;22.30;99.90;;;;;;4222219;28;20116;-63
2021/08/08 04:35:29;;;;;;;11.73;4.45;;;22.80;99.90;;;;;;4222724;28;20084;-63
2021/08/08 04:37:31;;;;;;;10.85;3.88;;;23.10;99.90;;;;;;4222423;28;20089;-63
2021/08/08 04:39:32;;;;;;;8.35;4.22;;;23.30;99.90;;;;;;4222512;28;20082;-62
2021/08/08 04:41:34;;;;;;;7.65;4.05;;;23.70;99.90;;;;;;4222669;28;20562;-63
2021/08/08 04:43:35;;;;;;;6.50;4.15;;;23.90;99.90;;;;;;4222414;28;20043;-63
2021/08/08 04:45:36;;;;;;;9.07;4.43;;;24.10;99.90;;;;;;4219774;28;20073;-63
2021/08/08 04:47:37;;;;;;;12.48;4.80;;;24.00;99.70;;;;;;4226555;28;20030;-63
2021/08/08 04:49:38;;;;;;;9.85;4.63;;;23.90;99.40;;;;;;4234089;27;20069;-62
2021/08/08 04:51:39;;;;;;;5.40;3.92;;;23.70;99.50;;;;;;4222112;27;20109;-63
2021/08/08 04:53:42;;;;;;;7.85;3.90;;;23.70;99.60;;;;;;4222309;28;20051;-62
2021/08/08 04:55:44;;;;;;;7.63;4.60;;;24.10;99.20;;;;;;4221784;28;20036;-63
2021/08/08 04:57:45;;;;;;;7.35;3.80;;;23.70;98.80;;;;;;4226701;27;20119;-63
2021/08/08 04:59:46;;;;;;;7.28;4.18;;;23.50;99.50;;;;;;4237942;27;20104;-63
2021/08/08 05:01:47;;;;;;;6.82;4.20;;;23.70;99.30;;;;;;4237785;27;20047;-63
2021/08/08 05:03:48;;;;;;;8.27;4.20;;;23.90;99.00;;;;;;4238679;27;20031;-63
2021/08/08 05:05:50;;;;;;;7.20;3.97;;;24.50;98.60;;;;;;4238073;27;20035;-63
2021/08/08 05:07:51;;;;;;;8.93;4.30;;;25.30;97.90;;;;;;4222570;28;20065;-63
2021/08/08 05:09:52;;;;;;;6.38;3.90;;;25.80;97.00;;;;;;4221823;28;20841;-63
2021/08/08 05:11:53;;;;;;;5.45;3.83;;;25.80;96.60;;;;;;4225797;28;20039;-63
2021/08/08 05:13:54;;;;;;;12.32;3.72;;;26.00;96.20;;;;;;4222037;28;20043;-63
2021/08/08 05:15:56;;;;;;;6.07;3.83;;;26.30;96.00;;;;;;4236973;28;20789;-63
2021/08/08 05:17:58;;;;;;;4.05;3.30;;;26.30;95.60;;;;;;4237005;28;20035;-63
2021/08/08 05:19:59;;;;;;;4.85;3.35;;;26.60;95.10;;;;;;4225547;27;20036;-63
2021/08/08 05:22:00;;;;;;;4.85;3.80;;;25.60;94.90;;;;;;4231153;28;20825;-63
2021/08/08 05:24:01;;;;;;;4.18;3.50;;;24.30;96.20;;;;;;4222132;28;20494;-63
2021/08/08 05:26:03;;;;;;;8.57;4.25;;;23.70;97.20;;;;;;4222220;28;20031;-63
2021/08/08 05:28:05;;;;;;;4.57;3.78;;;23.10;98.20;;;;;;4221488;28;20340;-63
2021/08/08 05:30:08;;;;;;;7.78;4.30;;;22.80;98.80;;;;;;4221649;28;20065;-63
2021/08/08 05:32:09;;;;;;;5.28;4.00;;;22.80;99.00;;;;;;4221558;28;20089;-64
2021/08/08 05:34:10;;;;;;;7.88;4.65;;;22.80;98.90;;;;;;4221521;28;20027;-63
2021/08/08 05:36:11;;;;;;;8.70;4.15;;;22.70;99.20;;;;;;4221076;28;20051;-64
2021/08/08 05:38:12;;;;;;;6.15;4.10;;;22.60;99.30;;;;;;4221313;28;20552;-63
2021/08/08 05:40:14;;;;;;;7.53;5.50;;;22.40;99.60;;;;;;4221464;28;20500;-65
2021/08/08 05:42:19;;;;;;;4.55;3.90;;;22.30;99.70;;;;;;4220993;28;20093;-64
2021/08/08 05:44:20;;;;;;;5.90;4.35;;;22.10;99.90;;;;;;4221274;28;20068;-64
2021/08/08 05:46:21;;;;;;;10.20;4.40;;;21.70;99.90;;;;;;4236626;28;20432;-64
2021/08/08 05:48:22;;;;;;;9.55;4.72;;;21.70;99.90;;;;;;4234367;28;20035;-64
2021/08/08 05:50:24;;;;;;;5.05;4.53;;;21.60;99.90;;;;;;4231519;28;20032;-64
2021/08/08 05:52:25;;;;;;;10.52;4.30;;;21.50;99.90;;;;;;4221505;28;20056;-64
2021/08/08 05:54:26;;;;;;;6.50;4.80;;;21.30;99.90;;;;;;4219954;28;20509;-64
2021/08/08 05:56:27;;;;;;;8.00;5.10;;;21.30;99.90;;;;;;4220849;28;20132;-64
2021/08/08 05:58:28;;;;;;;7.75;4.78;;;21.40;99.90;;;;;;4221306;28;20039;-63
2021/08/08 06:00:30;;;;;;;7.95;4.88;;;21.40;99.90;;;;;;4221210;28;20126;-64
2021/08/08 06:02:31;;;;;;;6.97;4.82;;;21.40;99.90;;;;;;4233113;28;20080;-63
2021/08/08 06:04:32;;;;;;;6.15;4.90;;;21.30;99.90;;;;;;4237313;27;20487;-63
2021/08/08 06:06:34;;;;;;;6.60;4.75;;;21.30;99.90;;;;;;4227642;28;20032;-63
2021/08/08 06:08:35;;;;;;;6.88;4.50;;;21.20;99.90;;;;;;4220688;28;20044;-64
2021/08/08 06:10:37;;;;;;;6.75;4.85;;;21.30;99.90;;;;;;4221479;28;20081;-62
2021/08/08 06:12:38;;;;;;;6.00;4.60;;;21.30;99.90;;;;;;4221061;28;20044;-63
2021/08/08 06:14:39;;;;;;;9.02;4.53;;;21.30;99.90;;;;;;4221427;28;20081;-63
2021/08/08 06:16:41;;;;;;;7.32;5.07;;;21.10;99.90;;;;;;4223525;28;20040;-63
2021/08/08 06:18:42;;;;;;;9.43;5.50;;;21.30;99.90;;;;;;4223945;28;20442;-63
2021/08/08 06:20:43;;;;;;;7.78;5.03;;;21.40;99.90;;;;;;4235540;27;20039;-63
2021/08/08 06:22:44;;;;;;;6.60;4.90;;;21.50;99.90;;;;;;4230456;27;20040;-63
2021/08/08 06:24:45;;;;;;;7.20;4.47;;;21.70;99.90;;;;;;4223982;28;20066;-62
2021/08/08 06:26:46;;;;;;;6.55;4.47;;;21.70;99.90;;;;;;4223951;28;20475;-62
2021/08/08 06:28:48;;;;;;;7.05;4.47;;;21.80;99.90;;;;;;4224297;28;20093;-63
2021/08/08 06:30:49;;;;;;;5.65;4.75;;;21.80;99.90;;;;;;4224235;28;20028;-63
2021/08/08 06:32:50;;;;;;;10.48;4.45;;;21.70;99.90;;;;;;4240294;27;20035;-63
2021/08/08 06:34:51;;;;;;;7.30;4.50;;;21.80;99.90;;;;;;4239282;27;20099;-63
2021/08/08 06:36:52;;;;;;;9.52;5.03;;;21.90;99.90;;;;;;4232074;27;20043;-63
2021/08/08 06:38:53;;;;;;;9.50;4.25;;;21.80;99.90;;;;;;4230798;27;20096;-63
2021/08/08 06:40:55;;;;;;;5.75;4.55;;;21.80;99.90;;;;;;4240341;27;20051;-63
2021/08/08 06:42:56;;;;;;;7.25;4.32;;;21.70;99.90;;;;;;4233384;27;20032;-63
2021/08/08 06:44:57;;;;;;;5.60;4.18;;;21.90;99.90;;;;;;4228372;27;20043;-62
2021/08/08 06:46:58;;;;;;;8.27;3.90;;;22.00;99.90;;;;;;4239883;27;20131;-65
2021/08/08 06:48:59;;;;;;;7.78;4.25;;;22.10;99.90;;;;;;4240587;27;20360;-63
2021/08/08 06:51:02;;;;;;;4.75;4.15;;;22.00;99.90;;;;;;4232752;27;20043;-65
2021/08/08 06:53:04;;;;;;;7.57;4.28;;;21.90;99.90;;;;;;4226617;27;20027;-68
2021/08/08 06:55:05;;;;;;;6.93;4.43;;;21.90;99.90;;;;;;4225578;27;20077;-65
2021/08/08 06:57:06;;;;;;;6.95;4.45;;;22.10;99.90;;;;;;4206947;28;20790;-65
2021/08/08 06:59:07;;;;;;;6.70;3.80;;;22.20;99.90;;;;;;4212090;27;20039;-66
2021/08/08 07:01:08;;;;;;;8.10;4.47;;;22.30;99.90;;;;;;4236644;27;20100;-66
2021/08/08 07:03:10;;;;;;;4.78;4.30;;;22.40;99.90;;;;;;4239167;27;20047;-65
2021/08/08 07:05:11;;;;;;;7.43;4.10;;;22.40;99.90;;;;;;4240229;27;20486;-63
2021/08/08 07:07:12;;;;;;;9.85;3.97;;;22.30;99.90;;;;;;4231341;27;20378;-66
2021/08/08 07:09:13;;;;;;;9.07;3.88;;;22.40;99.90;;;;;;4223531;28;20065;-65
2021/08/08 07:11:15;;;;;;;5.13;3.58;;;22.40;99.90;;;;;;4224973;27;20696;-65
2021/08/08 07:13:16;;;;;;;6.63;3.63;;;22.50;99.90;;;;;;4224687;27;20816;-66
2021/08/08 07:15:17;;;;;;;5.05;3.67;;;22.50;99.90;;;;;;4227001;27;20043;-66
2021/08/08 07:17:18;;;;;;;6.47;3.70;;;22.40;99.90;;;;;;4240283;27;20114;-64
2021/08/08 07:19:19;;;;;;;4.93;3.80;;;22.60;99.90;;;;;;4240337;27;20091;-68
2021/08/08 07:21:20;;;;;;;4.65;3.75;;;22.50;99.90;;;;;;4238714;27;20879;-65
2021/08/08 07:23:22;;;;;;;4.65;3.40;;;22.50;99.90;;;;;;4237255;27;20039;-69
2021/08/08 07:25:24;;;;;;;4.50;3.10;;;22.70;99.90;;;;;;4223544;28;20426;-65
2021/08/08 07:27:27;;;;;;;8.30;3.67;;;22.90;99.90;;;;;;4222244;28;20491;-66
2021/08/08 07:29:28;;;;;;;7.80;3.65;;;23.00;99.90;;;;;;4233985;27;21074;-64
2021/08/08 07:31:29;;;;;;;4.60;3.20;;;23.10;99.90;;;;;;4214026;27;20088;-66
2021/08/08 07:33:31;;;;;;;4.25;3.03;;;23.20;99.90;;;;;;4222223;28;20028;-63
2021/08/08 07:35:32;;;;;;;5.22;3.17;;;23.20;99.90;;;;;;4221177;28;20481;-65
2021/08/08 07:37:33;;;;;;;3.78;2.58;;;23.30;99.90;;;;;;4221588;28;20039;-64
2021/08/08 07:39:34;;;;;;;4.25;2.88;;;23.30;99.90;;;;;;4221079;28;20095;-62
2021/08/08 07:41:36;;;;;;;3.33;2.67;;;23.30;99.90;;;;;;4219637;27;20080;-66
2021/08/08 07:43:38;;;;;;;3.42;2.92;;;23.40;99.90;;;;;;4224205;27;20060;-64
2021/08/08 07:45:39;;;;;;;2.65;2.45;;;23.50;99.90;;;;;;4222717;27;20044;-63
2021/08/08 07:47:41;;;;;;;4.55;2.10;;;23.60;99.90;;;;;;4210386;28;20101;-62
2021/08/08 07:49:42;;;;;;;3.15;2.60;;;23.70;99.90;;;;;;4219246;28;20035;-62
2021/08/08 07:51:44;;;;;;;3.90;2.88;;;23.90;99.90;;;;;;4221476;27;20035;-63
2021/08/08 07:53:45;;;;;;;2.92;2.63;;;24.00;99.90;;;;;;4223605;27;22359;-63
2021/08/08 07:55:49;;;;;;;7.40;2.53;;;24.10;99.90;;;;;;4220683;27;20116;-62
2021/08/08 07:57:51;;;;;;;3.08;2.13;;;24.00;99.90;;;;;;4220116;28;20048;-62
2021/08/08 07:59:52;;;;;;;2.70;2.10;;;24.00;99.90;;;;;;4220415;27;20096;-61
2021/08/08 08:01:53;;;;;;;2.58;2.28;;;24.00;99.90;;;;;;4220455;27;20096;-63
2021/08/08 08:03:54;;;;;;;4.00;1.95;;;24.10;99.90;;;;;;4230801;27;20778;-63
2021/08/08 08:05:56;;;;;;;2.40;2.00;;;24.10;99.70;;;;;;4211721;27;20056;-62
2021/08/08 08:07:57;;;;;;;3.03;1.88;;;24.20;99.40;;;;;;4216790;28;20552;-63
2021/08/08 08:09:58;;;;;;;1.77;1.63;;;24.30;99.20;;;;;;4233055;27;20031;-66
2021/08/08 08:11:59;;;;;;;2.22;1.77;;;24.40;99.00;;;;;;4223553;27;20039;-64
2021/08/08 08:14:01;;;;;;;3.45;2.30;;;24.50;98.80;;;;;;4217303;27;20032;-63
2021/08/08 08:16:02;;;;;;;2.13;1.88;;;24.70;98.80;;;;;;4223801;27;20092;-63
2021/08/08 08:18:03;;;;;;;3.58;2.08;;;24.80;98.60;;;;;;4223722;27;20112;-63
2021/08/08 08:20:04;;;;;;;1.60;1.50;;;25.00;98.30;;;;;;4209207;28;20077;-62
2021/08/08 08:22:05;;;;;;;2.65;2.08;;;25.10;98.10;;;;;;4214170;28;20085;-63
2021/08/08 08:24:07;;;;;;;2.03;1.80;;;25.10;97.70;;;;;;4222928;27;20441;-63
2021/08/08 08:26:08;;;;;;;5.40;2.25;;;25.30;97.60;;;;;;4216677;28;20027;-64
2021/08/08 08:28:12;;;;;;;1.95;1.75;;;25.40;97.20;;;;;;4221100;28;20081;-60
2021/08/08 08:30:13;;;;;;;2.42;2.20;;;25.50;97.00;;;;;;4231586;27;20027;-61
2021/08/08 08:32:14;;;;;;;1.60;1.50;;;25.80;96.70;;;;;;4238106;27;20035;-60
2021/08/08 08:34:15;;;;;;;2.60;1.90;;;25.90;96.30;;;;;;4237112;27;20380;-61
2021/08/08 08:36:16;;;;;;;6.25;2.00;;;26.00;96.20;;;;;;4237956;27;20116;-61
2021/08/08 08:38:18;;;;;;;3.00;1.52;;;26.00;95.90;;;;;;4237642;27;20548;-60
2021/08/08 08:40:20;;;;;;;2.22;2.03;;;26.10;95.90;;;;;;4238294;27;20035;-61
2021/08/08 08:42:22;;;;;;;3.70;1.50;;;26.10;95.70;;;;;;4236584;27;20020;-61
2021/08/08 08:44:25;;;;;;;2.38;1.85;;;26.30;95.60;;;;;;4237587;27;20095;-60
2021/08/08 08:46:27;;;;;;;3.25;1.70;;;26.40;95.40;;;;;;4234024;27;20101;-60
2021/08/08 08:48:31;;;;;;;1.65;1.55;;;26.50;95.00;;;;;;4221788;27;20143;-60
2021/08/08 08:50:34;;;;;;;3.65;1.55;;;26.50;94.80;;;;;;4221425;28;20530;-62
2021/08/08 08:52:35;;;;;;;2.75;1.20;;;26.50;93.60;;;;;;4220945;28;20035;-63
2021/08/08 08:54:37;;;;;;;1.20;1.15;;;26.70;93.20;;;;;;4222733;28;20052;-62
2021/08/08 08:56:38;;;;;;;3.45;1.38;;;26.80;92.80;;;;;;4222498;28;20073;-63
2021/08/08 08:58:40;;;;;;;2.65;1.30;;;27.20;92.80;;;;;;4232983;27;20047;-62
2021/08/08 09:00:41;;;;;;;1.77;1.23;;;27.20;92.40;;;;;;4221714;28;20023;-62
2021/08/08 09:02:43;;;;;;;2.50;1.50;;;27.40;91.90;;;;;;4221945;28;20065;-62
2021/08/08 09:04:44;;;;;;;4.80;1.05;;;27.70;91.70;;;;;;4222740;28;20116;-62
2021/08/08 09:06:45;;;;;;;2.22;1.30;;;27.90;91.20;;;;;;4233468;28;20043;-62
2021/08/08 09:08:46;;;;;;;3.00;1.20;;;28.00;90.80;;;;;;4235287;28;20032;-61
2021/08/08 09:11:02;;;;;;;1.83;1.30;;;27.90;90.60;;;;;;4236679;28;20027;-62
2021/08/08 09:13:05;;;;;;;2.78;1.20;;;27.80;90.10;;;;;;4232881;28;20105;-62
2021/08/08 09:15:08;;;;;;;3.70;1.20;;;27.70;90.60;;;;;;4230872;28;20555;-62
2021/08/08 09:17:10;;;;;;;2.67;1.33;;;27.60;90.60;;;;;;4238438;27;20092;-62
2021/08/08 09:19:23;;;;;;;2.70;1.30;;;27.70;90.20;;;;;;4236726;28;20084;-62
2021/08/08 09:21:25;;;;;;;1.83;1.30;;;27.90;88.80;;;;;;4238709;28;20107;-61
2021/08/08 09:23:33;;;;;;;1.92;0.82;;;28.10;88.40;;;;;;4237844;27;20047;-62
2021/08/08 09:25:35;;;;;;;3.65;1.20;;;28.20;86.50;;;;;;4238526;27;20065;-63
2021/08/08 09:27:38;;;;;;;1.65;1.13;;;28.20;86.50;;;;;;4238541;28;20516;-63
2021/08/08 09:29:46;;;;;;;1.27;1.13;;;28.30;86.60;;;;;;4238663;28;20027;-63
2021/08/08 09:31:48;;;;;;;1.30;1.20;;;28.20;86.50;;;;;;4236744;28;20435;-63
2021/08/08 09:33:50;;;;;;;1.35;1.08;;;28.30;85.90;;;;;;4227704;28;20081;-64
2021/08/08 09:35:54;;;;;;;1.77;1.67;;;28.40;85.10;;;;;;4221539;28;20465;-63
2021/08/08 09:38:01;;;;;;;1.02;0.88;;;28.40;84.20;;;;;;4221746;28;20479;-63
2021/08/08 09:40:12;;;;;;;1.90;1.17;;;28.30;83.40;;;;;;4221577;28;20040;-63
2021/08/08 09:42:15;;;;;;;1.48;1.20;;;28.30;82.40;;;;;;4221462;28;20090;-64
2021/08/08 09:44:16;;;;;;;4.65;0.98;;;28.30;81.60;;;;;;4220914;28;20164;-62
2021/08/08 09:46:18;;;;;;;1.38;0.95;;;28.30;81.60;;;;;;4221423;28;20035;-64
2021/08/08 09:48:19;;;;;;;1.05;0.95;;;28.30;81.30;;;;;;4221172;28;20085;-63
2021/08/08 09:50:23;;;;;;;1.15;1.05;;;28.30;81.10;;;;;;4222893;28;20036;-63
2021/08/08 09:52:25;;;;;;;1.20;1.10;;;28.30;81.00;;;;;;4211178;28;20059;-63
2021/08/08 09:54:37;;;;;;;0.95;0.88;;;28.40;81.10;;;;;;4206973;28;20059;-62
2021/08/08 09:56:38;;;;;;;1.55;1.00;;;28.50;80.30;;;;;;4207714;28;20036;-63
2021/08/08 09:58:40;;;;;;;1.55;0.90;;;28.60;80.70;;;;;;4206629;28;20048;-63
2021/08/08 10:00:41;;;;;;;1.20;0.77;;;28.70;80.20;;;;;;4207506;28;20077;-62
2021/08/08 10:02:42;;;;;;;0.80;0.80;;;28.80;80.20;;;;;;4207780;28;20508;-65
2021/08/08 10:04:43;;;;;;;3.55;0.85;;;28.80;79.60;;;;;;4207602;28;20034;-64
2021/08/08 10:06:45;;;;;;;1.67;1.05;;;28.70;78.80;;;;;;4207465;28;20086;-63
2021/08/08 10:08:47;;;;;;;1.30;1.08;;;28.70;78.30;;;;;;4207604;28;20433;-64
2021/08/08 10:10:52;;;;;;;3.75;1.27;;;28.70;77.90;;;;;;4206162;28;20039;-63
2021/08/08 10:13:33;;;;;;;1.27;1.17;;;28.70;77.40;;;;;;4207299;28;20876;-61
2021/08/08 10:15:39;;;;;;;2.83;0.88;;;28.60;78.40;;;;;;4206989;28;20842;-62
2021/08/08 10:17:44;;;;;;;1.65;1.13;;;28.70;78.60;;;;;;4207239;28;20020;-63
2021/08/08 10:19:50;;;;;;;4.75;0.98;;;28.80;78.50;;;;;;4207017;28;20056;-62
2021/08/08 10:21:51;;;;;;;0.90;0.90;;;28.90;78.80;;;;;;4207428;28;20032;-63
2021/08/08 10:23:53;;;;;;;3.92;1.33;;;28.90;78.70;;;;;;4207384;28;20513;-62
2021/08/08 10:25:54;;;;;;;3.13;1.13;;;28.90;79.10;;;;;;4206552;28;20101;-62
2021/08/08 10:27:58;;;;;;;1.58;1.33;;;28.70;79.80;;;;;;4212343;28;20051;-63
2021/08/08 10:30:02;;;;;;;1.75;1.45;;;28.60;80.00;;;;;;4220383;28;20032;-64
2021/08/08 10:32:04;;;;;;;1.40;1.30;;;28.60;80.10;;;;;;4212343;28;20081;-62
2021/08/08 10:34:05;;;;;;;2.97;1.80;;;28.70;80.50;;;;;;4223639;28;20088;-61